createdAt,value
2023-03-13T00:00:38.829Z,25.37
2023-03-13T00:01:38.820Z,25.40
2023-03-13T00:02:38.809Z,25.37
2023-03-13T00:03:38.813Z,25.38
2023-03-13T00:04:38.846Z,25.38
2023-03-13T00:55:29.515Z,25.38
2023-03-13T00:56:30.462Z,25.36
2023-03-13T00:57:30.463Z,25.37
2023-03-13T00:58:30.453Z,25.37
2023-03-13T00:59:30.437Z,25.34
2023-03-13T01:00:30.438Z,25.37
2023-03-13T01:01:30.418Z,25.40
2023-03-13T01:02:30.529Z,25.38
2023-03-13T01:03:30.451Z,25.37
2023-03-13T01:04:30.367Z,25.38
2023-03-13T01:05:30.345Z,25.37
2023-03-13T01:06:30.336Z,25.36
2023-03-13T01:07:30.324Z,25.38
2023-03-13T01:08:30.334Z,25.37
2023-03-13T01:09:30.292Z,25.37
2023-03-13T01:10:30.272Z,25.36
2023-03-13T01:11:30.354Z,25.37
2023-03-13T01:12:30.259Z,25.38
2023-03-13T01:13:30.262Z,25.36
2023-03-13T01:14:30.219Z,25.37
2023-03-13T01:15:30.351Z,25.38
2023-03-13T01:16:30.193Z,25.36
2023-03-13T01:17:30.179Z,25.36
2023-03-13T01:18:30.166Z,25.38
2023-03-13T01:19:30.151Z,25.36
2023-03-13T01:20:30.136Z,25.37
2023-03-13T01:21:30.150Z,25.34
2023-03-13T01:22:30.141Z,25.36
2023-03-13T01:23:30.117Z,25.37
2023-03-13T01:24:30.082Z,25.37
2023-03-13T01:25:30.079Z,25.37
2023-03-13T01:26:30.042Z,25.36
2023-03-13T01:27:30.077Z,25.36
2023-03-13T01:28:30.028Z,25.36
2023-03-13T01:29:30.000Z,25.34
2023-03-13T01:30:29.983Z,25.37
2023-03-13T01:31:30.047Z,25.36
2023-03-13T01:32:29.961Z,25.36
2023-03-13T01:33:29.938Z,25.36
2023-03-13T01:34:29.937Z,25.36
2023-03-13T01:35:30.346Z,25.36
2023-03-13T01:36:29.909Z,25.36
2023-03-13T01:37:29.888Z,25.36
2023-03-13T01:38:29.884Z,25.37
2023-03-13T01:39:29.872Z,25.34
2023-03-13T01:40:29.849Z,25.34
2023-03-13T01:41:29.844Z,25.36
2023-03-13T01:42:29.829Z,25.36
2023-03-13T01:43:29.861Z,25.36
2023-03-13T01:44:29.816Z,25.34
2023-03-13T01:45:29.808Z,25.34
2023-03-13T01:46:29.981Z,25.37
2023-03-13T01:47:29.775Z,25.34
2023-03-13T01:48:29.777Z,25.34
2023-03-13T01:49:29.773Z,25.34
2023-03-13T01:50:29.751Z,25.34
2023-03-13T01:51:29.743Z,25.34
2023-03-13T01:52:29.710Z,25.34
2023-03-13T01:53:29.721Z,25.33
2023-03-13T01:54:29.675Z,25.34
2023-03-13T01:55:29.677Z,25.36
2023-03-13T01:56:29.656Z,25.36
2023-03-13T01:57:29.637Z,25.34
2023-03-13T01:58:29.630Z,25.37
2023-03-13T01:59:29.635Z,25.36
2023-03-13T02:00:29.613Z,25.33
2023-03-13T02:01:29.674Z,25.33
2023-03-13T02:02:29.692Z,25.34
2023-03-13T02:03:29.565Z,25.33
2023-03-13T02:04:29.539Z,25.36
2023-03-13T02:05:29.565Z,25.37
2023-03-13T02:06:29.514Z,25.34
2023-03-13T02:07:29.513Z,25.36
2023-03-13T02:08:29.492Z,25.33
2023-03-13T02:09:29.489Z,25.34
2023-03-13T02:10:29.473Z,25.36
2023-03-13T02:11:29.468Z,25.34
2023-03-13T02:12:29.440Z,25.33
2023-03-13T02:13:29.421Z,25.34
2023-03-13T02:14:29.412Z,25.34
2023-03-13T02:15:29.428Z,25.34
2023-03-13T02:16:29.465Z,25.37
2023-03-13T02:17:29.371Z,25.34
2023-03-13T02:18:29.357Z,25.36
2023-03-13T02:19:29.345Z,25.34
2023-03-13T02:20:29.332Z,25.34
2023-03-13T02:21:29.333Z,25.33
2023-03-13T02:22:29.319Z,25.34
2023-03-13T02:23:29.294Z,25.34
2023-03-13T02:24:29.279Z,25.34
2023-03-13T02:25:29.267Z,25.31
2023-03-13T02:26:29.271Z,25.34
2023-03-13T02:27:29.237Z,25.31
2023-03-13T02:28:29.259Z,25.36
2023-03-13T02:29:29.244Z,25.34
2023-03-13T02:30:29.221Z,25.33
2023-03-13T02:31:29.324Z,25.34
2023-03-13T02:32:29.262Z,25.36
2023-03-13T02:33:29.194Z,25.34
2023-03-13T02:34:29.184Z,25.36
2023-03-13T02:35:29.216Z,25.34
2023-03-13T02:36:29.165Z,25.34
2023-03-13T02:37:29.154Z,25.33
2023-03-13T02:38:29.154Z,25.33
2023-03-13T02:39:29.136Z,25.34
2023-03-13T02:40:29.138Z,25.34
2023-03-13T02:41:29.122Z,25.31
2023-03-13T02:42:29.114Z,25.34
2023-03-13T02:43:29.113Z,25.34
2023-03-13T02:44:29.096Z,25.31
2023-03-13T02:45:29.098Z,25.33
2023-03-13T02:46:29.181Z,25.33
2023-03-13T02:47:29.100Z,25.33
2023-03-13T02:48:29.068Z,25.34
2023-03-13T02:49:29.071Z,25.31
2023-03-13T02:50:29.060Z,25.31
2023-03-13T02:51:29.041Z,25.33
2023-03-13T02:52:29.027Z,25.33
2023-03-13T02:53:29.020Z,25.34
2023-03-13T02:54:29.022Z,25.30
2023-03-13T02:55:29.010Z,25.31
2023-03-13T02:56:29.014Z,25.33
2023-03-13T02:57:28.997Z,25.31
2023-03-13T02:58:31.693Z,25.29
2023-03-13T02:59:28.986Z,25.33
2023-03-13T03:00:29.005Z,25.34
2023-03-13T03:01:28.971Z,25.31
2023-03-13T03:02:28.982Z,25.33
2023-03-13T03:03:28.986Z,25.31
2023-03-13T03:04:28.940Z,25.31
2023-03-13T03:05:28.950Z,25.34
2023-03-13T03:06:28.927Z,25.33
2023-03-13T03:07:28.948Z,25.33
2023-03-13T03:08:28.918Z,25.34
2023-03-13T03:09:28.892Z,25.31
2023-03-13T03:10:28.892Z,25.30
2023-03-13T03:11:28.879Z,25.30
2023-03-13T03:12:28.861Z,25.33
2023-03-13T03:13:28.850Z,25.31
2023-03-13T03:14:28.834Z,25.33
2023-03-13T03:15:28.826Z,25.31
2023-03-13T03:16:28.973Z,25.31
2023-03-13T03:17:28.815Z,25.34
2023-03-13T03:18:28.804Z,25.31
2023-03-13T03:19:28.807Z,25.33
2023-03-13T03:20:28.770Z,25.34
2023-03-13T03:21:28.758Z,25.33
2023-03-13T03:22:28.753Z,25.33
2023-03-13T03:23:28.752Z,25.33
2023-03-13T03:24:28.737Z,25.33
2023-03-13T03:25:28.724Z,25.33
2023-03-13T03:26:28.728Z,25.30
2023-03-13T03:27:28.711Z,25.31
2023-03-13T03:28:28.694Z,25.33
2023-03-13T03:29:28.723Z,25.33
2023-03-13T03:30:28.677Z,25.31
2023-03-13T03:31:28.692Z,25.31
2023-03-13T03:32:28.690Z,25.31
2023-03-13T03:33:28.661Z,25.33
2023-03-13T03:34:28.656Z,25.33
2023-03-13T03:35:28.680Z,25.30
2023-03-13T03:36:28.635Z,25.29
2023-03-13T03:37:28.620Z,25.30
2023-03-13T03:38:28.621Z,25.30
2023-03-13T03:39:28.634Z,25.30
2023-03-13T03:40:28.629Z,25.33
2023-03-13T03:41:28.604Z,25.30
2023-03-13T03:42:28.586Z,25.33
2023-03-13T03:43:28.601Z,25.31
2023-03-13T03:44:28.576Z,25.31
2023-03-13T03:45:28.636Z,25.31
2023-03-13T03:46:28.585Z,25.33
2023-03-13T03:47:28.669Z,25.31
2023-03-13T03:48:28.568Z,25.31
2023-03-13T03:49:28.567Z,25.31
2023-03-13T03:50:28.550Z,25.30
2023-03-13T03:51:28.575Z,25.31
2023-03-13T03:52:28.534Z,25.30
2023-03-13T03:53:28.520Z,25.31
2023-03-13T03:54:28.520Z,25.33
2023-03-13T03:55:28.509Z,25.31
2023-03-13T03:56:28.493Z,25.29
2023-03-13T03:57:28.480Z,25.30
2023-03-13T03:58:28.463Z,25.30
2023-03-13T03:59:28.444Z,25.31
2023-03-13T04:00:28.444Z,25.31
2023-03-13T04:01:28.436Z,25.33
2023-03-13T04:02:28.443Z,25.33
2023-03-13T04:03:28.495Z,25.30
2023-03-13T04:04:28.373Z,25.29
2023-03-13T04:05:28.362Z,25.29
2023-03-13T04:06:28.349Z,25.30
2023-03-13T04:07:28.387Z,25.33
2023-03-13T04:08:28.334Z,25.29
2023-03-13T04:09:30.954Z,25.30
2023-03-13T04:10:28.305Z,25.31
2023-03-13T04:11:28.295Z,25.31
2023-03-13T04:12:28.281Z,25.30
2023-03-13T04:13:28.276Z,25.31
2023-03-13T04:14:28.266Z,25.30
2023-03-13T04:15:28.260Z,25.29
2023-03-13T04:16:28.345Z,25.30
2023-03-13T04:17:28.249Z,25.30
2023-03-13T04:18:28.234Z,25.30
2023-03-13T04:19:28.224Z,25.33
2023-03-13T04:20:28.209Z,25.30
2023-03-13T04:21:28.204Z,25.31
2023-03-13T04:22:28.194Z,25.31
2023-03-13T04:23:28.219Z,25.31
2023-03-13T04:24:28.184Z,25.30
2023-03-13T04:25:28.174Z,25.30
2023-03-13T04:26:28.159Z,25.31
2023-03-13T04:27:28.150Z,25.30
2023-03-13T04:28:28.143Z,25.30
2023-03-13T04:29:28.131Z,25.31
2023-03-13T04:30:28.156Z,25.31
2023-03-13T04:31:28.116Z,25.30
2023-03-13T04:32:28.189Z,25.31
2023-03-13T04:33:28.093Z,25.29
2023-03-13T04:34:28.082Z,25.33
2023-03-13T04:35:28.153Z,25.29
2023-03-13T04:36:28.137Z,25.29
2023-03-13T04:37:28.077Z,25.29
2023-03-13T04:38:28.084Z,25.29
2023-03-13T04:39:28.083Z,25.30
2023-03-13T04:40:28.065Z,25.30
2023-03-13T04:41:28.052Z,25.29
2023-03-13T04:42:28.056Z,25.27
2023-03-13T04:43:28.049Z,25.29
2023-03-13T04:44:28.054Z,25.30
2023-03-13T04:45:28.068Z,25.29
2023-03-13T04:46:28.112Z,25.29
2023-03-13T04:47:28.046Z,25.29
2023-03-13T04:48:28.027Z,25.31
2023-03-13T04:49:28.010Z,25.30
2023-03-13T04:50:27.998Z,25.29
2023-03-13T04:51:27.988Z,25.30
2023-03-13T04:52:27.987Z,25.31
2023-03-13T04:53:27.981Z,25.30
2023-03-13T04:54:27.965Z,25.31
2023-03-13T04:55:27.972Z,25.30
2023-03-13T04:56:42.269Z,25.30
2023-03-13T04:57:27.952Z,25.29
2023-03-13T04:58:27.939Z,25.30
2023-03-13T04:59:27.935Z,25.30
2023-03-13T05:00:27.947Z,25.29
2023-03-13T05:01:28.019Z,25.29
2023-03-13T05:02:28.050Z,25.29
2023-03-13T05:03:27.914Z,25.30
2023-03-13T05:04:27.903Z,25.30
2023-03-13T05:05:27.945Z,25.29
2023-03-13T05:06:27.897Z,25.26
2023-03-13T05:07:27.892Z,25.30
2023-03-13T05:08:27.892Z,25.29
2023-03-13T05:09:27.876Z,25.27
2023-03-13T05:10:27.869Z,25.29
2023-03-13T05:11:27.896Z,25.29
2023-03-13T05:12:27.856Z,25.30
2023-03-13T05:13:27.853Z,25.29
2023-03-13T05:14:27.838Z,25.27
2023-03-13T05:15:27.823Z,25.30
2023-03-13T05:16:27.825Z,25.29
2023-03-13T05:17:27.814Z,25.27
2023-03-13T05:18:27.810Z,25.27
2023-03-13T05:19:27.801Z,25.29
2023-03-13T05:20:27.790Z,25.30
2023-03-13T05:21:27.778Z,25.27
2023-03-13T05:22:27.777Z,25.27
2023-03-13T05:23:27.771Z,25.29
2023-03-13T05:24:27.775Z,25.30
2023-03-13T05:25:27.769Z,25.30
2023-03-13T05:26:27.746Z,25.30
2023-03-13T05:27:27.761Z,25.31
2023-03-13T05:28:27.724Z,25.29
2023-03-13T05:29:27.729Z,25.29
2023-03-13T05:30:27.727Z,25.29
2023-03-13T05:31:27.803Z,25.31
2023-03-13T05:32:27.785Z,25.30
2023-03-13T05:33:27.714Z,25.30
2023-03-13T05:34:27.716Z,25.31
2023-03-13T05:35:27.759Z,25.30
2023-03-13T05:36:27.713Z,25.30
2023-03-13T05:37:27.699Z,25.27
2023-03-13T05:38:27.714Z,25.29
2023-03-13T05:39:27.685Z,25.29
2023-03-13T05:40:27.679Z,25.31
2023-03-13T05:41:27.690Z,25.29
2023-03-13T05:42:27.679Z,25.29
2023-03-13T05:43:27.699Z,25.30
2023-03-13T05:44:27.661Z,25.30
2023-03-13T05:45:27.662Z,25.30
2023-03-13T05:46:27.655Z,25.29
2023-03-13T05:47:27.626Z,25.30
2023-03-13T05:48:27.627Z,25.29
2023-03-13T05:49:27.602Z,25.29
2023-03-13T05:50:27.592Z,25.30
2023-03-13T05:51:27.623Z,25.30
2023-03-13T05:52:27.577Z,25.30
2023-03-13T05:53:27.564Z,25.30
2023-03-13T05:54:27.542Z,25.30
2023-03-13T05:55:27.539Z,25.30
2023-03-13T05:56:27.527Z,25.29
2023-03-13T05:57:27.521Z,25.29
2023-03-13T05:58:27.512Z,25.29
2023-03-13T05:59:27.533Z,25.30
2023-03-13T06:00:27.500Z,25.29
2023-03-13T06:01:27.489Z,25.30
2023-03-13T06:02:27.483Z,25.31
2023-03-13T06:03:27.489Z,25.29
2023-03-13T06:04:27.617Z,25.30
2023-03-13T06:05:27.450Z,25.30
2023-03-13T06:06:27.460Z,25.30
2023-03-13T06:07:27.423Z,25.31
2023-03-13T06:08:27.419Z,25.30
2023-03-13T06:09:27.409Z,25.31
2023-03-13T06:10:27.399Z,25.31
2023-03-13T06:11:27.391Z,25.30
2023-03-13T06:12:27.376Z,25.33
2023-03-13T06:13:27.354Z,25.31
2023-03-13T06:14:27.333Z,25.31
2023-03-13T06:15:27.345Z,25.33
2023-03-13T06:16:27.376Z,25.31
2023-03-13T06:17:27.264Z,25.30
2023-03-13T06:18:27.276Z,25.29
2023-03-13T06:19:27.370Z,25.31
2023-03-13T06:20:27.255Z,25.33
2023-03-13T06:21:27.251Z,25.34
2023-03-13T06:22:27.226Z,25.31
2023-03-13T06:23:27.215Z,25.30
2023-03-13T06:24:27.201Z,25.34
2023-03-13T06:25:27.189Z,25.31
2023-03-13T06:26:27.174Z,25.33
2023-03-13T06:27:27.174Z,25.34
2023-03-13T06:28:27.163Z,25.34
2023-03-13T06:29:27.152Z,25.36
2023-03-13T06:30:27.144Z,25.38
2023-03-13T06:31:27.183Z,25.37
2023-03-13T06:32:27.498Z,25.37
2023-03-13T06:33:27.169Z,25.38
2023-03-13T06:34:27.375Z,25.37
2023-03-13T06:35:27.102Z,25.38
2023-03-13T06:36:27.132Z,25.40
2023-03-13T06:37:27.154Z,25.40
2023-03-13T06:38:27.057Z,25.38
2023-03-13T06:39:27.379Z,25.40
2023-03-13T06:40:27.063Z,25.41
2023-03-13T06:41:27.062Z,25.38
2023-03-13T06:42:27.053Z,25.44
2023-03-13T06:43:27.084Z,25.47
2023-03-13T06:44:27.381Z,25.45
2023-03-13T06:45:27.023Z,25.45
2023-03-13T06:46:27.074Z,25.42
2023-03-13T06:47:27.045Z,25.45
2023-03-13T06:48:27.012Z,25.47
2023-03-13T06:49:27.418Z,25.48
2023-03-13T06:50:27.388Z,25.48
2023-03-13T06:51:26.967Z,25.48
2023-03-13T06:52:41.257Z,25.49
2023-03-13T06:53:26.981Z,25.51
2023-03-13T06:54:26.918Z,25.49
2023-03-13T06:55:27.412Z,25.49
2023-03-13T06:56:26.893Z,25.54
2023-03-13T06:57:26.882Z,25.54
2023-03-13T06:58:32.642Z,25.54
2023-03-13T06:59:27.899Z,25.58
2023-03-13T07:00:27.164Z,25.60
2023-03-13T07:01:26.999Z,25.57
2023-03-13T07:04:26.824Z,25.57
2023-03-13T07:05:42.538Z,25.57
2023-03-13T07:06:30.107Z,25.54
2023-03-13T07:07:31.884Z,25.55
2023-03-13T07:08:26.947Z,25.54
2023-03-13T07:09:26.736Z,25.54
2023-03-13T07:11:26.928Z,25.52
2023-03-13T07:12:26.703Z,25.52
2023-03-13T07:13:26.693Z,25.55
2023-03-13T07:14:26.712Z,25.52
2023-03-13T07:15:26.651Z,25.48
2023-03-13T07:16:27.153Z,25.49
2023-03-13T07:17:26.615Z,25.51
2023-03-13T07:18:26.605Z,25.51
2023-03-13T07:19:26.635Z,25.52
2023-03-13T07:20:27.621Z,25.48
2023-03-13T07:21:26.947Z,25.48
2023-03-13T07:22:26.534Z,25.48
2023-03-13T07:23:26.540Z,25.48
2023-03-13T07:24:26.554Z,25.48
2023-03-13T07:25:26.500Z,25.48
2023-03-13T07:26:26.992Z,25.48
2023-03-13T07:27:26.593Z,25.48
2023-03-13T07:28:27.476Z,25.49
2023-03-13T07:29:26.492Z,25.48
2023-03-13T07:30:30.146Z,25.47
2023-03-13T07:31:26.558Z,25.47
2023-03-13T07:32:26.520Z,25.48
2023-03-13T07:33:26.463Z,25.48
2023-03-13T07:34:26.436Z,25.47
2023-03-13T07:35:27.028Z,25.48
2023-03-13T07:36:26.501Z,25.51
2023-03-13T07:37:26.921Z,25.51
2023-03-13T07:38:26.398Z,25.49
2023-03-13T07:39:26.402Z,25.51
2023-03-13T07:40:26.355Z,25.49
2023-03-13T07:41:26.379Z,25.49
2023-03-13T07:42:26.450Z,25.52
2023-03-13T07:43:26.357Z,25.52
2023-03-13T07:44:27.330Z,25.54
2023-03-13T07:45:26.371Z,25.54
2023-03-13T07:46:27.399Z,25.51
2023-03-13T07:47:27.413Z,25.54
2023-03-13T07:48:26.411Z,25.54
2023-03-13T07:49:26.262Z,25.52
2023-03-13T07:50:26.473Z,25.52
2023-03-13T07:51:42.053Z,25.52
2023-03-13T07:52:26.225Z,25.55
2023-03-13T07:53:26.385Z,25.52
2023-03-13T07:54:26.220Z,25.54
2023-03-13T07:55:26.417Z,25.58
2023-03-13T07:56:26.187Z,25.55
2023-03-13T07:57:26.423Z,25.58
2023-03-13T07:58:26.157Z,25.58
2023-03-13T07:59:26.170Z,25.58
2023-03-13T08:00:26.182Z,25.55
2023-03-13T08:01:29.123Z,25.60
2023-03-13T08:02:26.230Z,25.57
2023-03-13T08:03:26.196Z,25.57
2023-03-13T08:04:26.166Z,25.54
2023-03-13T08:05:28.466Z,25.57
2023-03-13T08:06:26.475Z,25.54
2023-03-13T08:07:26.152Z,25.57
2023-03-13T08:08:26.567Z,25.55
2023-03-13T08:09:26.048Z,25.57
2023-03-13T08:10:26.416Z,25.57
2023-03-13T08:11:26.017Z,25.57
2023-03-13T08:12:26.015Z,25.54
2023-03-13T08:13:26.013Z,25.55
2023-03-13T08:14:26.420Z,25.58
2023-03-13T08:15:26.001Z,25.54
2023-03-13T08:16:26.510Z,25.57
2023-03-13T08:17:25.972Z,25.55
2023-03-13T08:18:26.419Z,25.55
2023-03-13T08:19:25.936Z,25.55
2023-03-13T08:20:26.006Z,25.58
2023-03-13T08:21:25.900Z,25.55
2023-03-13T08:22:25.890Z,25.58
2023-03-13T08:23:25.953Z,25.60
2023-03-13T08:24:25.870Z,25.57
2023-03-13T08:25:25.840Z,25.58
2023-03-13T08:26:25.828Z,25.60
2023-03-13T08:28:25.925Z,25.60
2023-03-13T08:29:25.780Z,25.62
2023-03-13T08:30:25.868Z,25.62
2023-03-13T08:31:25.926Z,25.60
2023-03-13T08:32:25.836Z,25.62
2023-03-13T08:33:25.779Z,25.62
2023-03-13T08:34:25.789Z,25.62
2023-03-13T08:35:25.826Z,25.62
2023-03-13T08:36:25.933Z,25.62
2023-03-13T08:37:25.749Z,25.64
2023-03-13T08:38:25.925Z,25.66
2023-03-13T08:39:25.756Z,25.65
2023-03-13T08:40:25.727Z,25.68
2023-03-13T08:41:25.922Z,25.66
2023-03-13T08:42:25.699Z,25.71
2023-03-13T08:43:25.694Z,25.73
2023-03-13T08:44:25.950Z,25.76
2023-03-13T08:45:26.205Z,25.78
2023-03-13T08:46:26.037Z,25.80
2023-03-13T08:47:25.624Z,25.82
2023-03-13T08:48:25.659Z,25.83
2023-03-13T08:49:25.596Z,25.86
2023-03-13T08:50:25.713Z,25.85
2023-03-13T08:51:25.946Z,25.83
2023-03-13T08:52:25.559Z,25.88
2023-03-13T08:53:26.616Z,25.89
2023-03-13T08:54:25.538Z,25.89
2023-03-13T08:55:26.665Z,25.92
2023-03-13T08:56:25.986Z,25.92
2023-03-13T08:57:25.506Z,25.99
2023-03-13T08:58:26.478Z,25.99
2023-03-13T08:59:25.936Z,26.03
2023-03-13T09:00:25.460Z,26.07
2023-03-13T09:01:25.469Z,26.08
2023-03-13T09:02:25.547Z,26.06
2023-03-13T09:03:25.519Z,26.10
2023-03-13T09:04:25.541Z,26.13
2023-03-13T09:05:25.441Z,26.12
2023-03-13T09:06:25.402Z,26.14
2023-03-13T09:07:25.374Z,26.14
2023-03-13T09:08:25.375Z,26.16
2023-03-13T09:09:25.472Z,26.19
2023-03-13T09:10:26.347Z,26.17
2023-03-13T09:11:25.467Z,26.23
2023-03-13T09:12:31.171Z,26.23
2023-03-13T09:13:25.320Z,26.21
2023-03-13T09:14:25.472Z,26.23
2023-03-13T09:15:25.281Z,26.24
2023-03-13T09:16:25.269Z,26.23
2023-03-13T09:17:25.240Z,26.26
2023-03-13T09:18:25.249Z,26.27
2023-03-13T09:19:25.473Z,26.27
2023-03-13T09:20:25.161Z,26.28
2023-03-13T09:21:25.606Z,26.27
2023-03-13T09:22:25.111Z,26.26
2023-03-13T09:23:25.098Z,26.28
2023-03-13T09:24:25.072Z,26.27
2023-03-13T09:25:25.062Z,26.28
2023-03-13T09:26:25.377Z,26.27
2023-03-13T09:27:25.497Z,26.27
2023-03-13T09:28:24.987Z,26.28
2023-03-13T09:29:24.966Z,26.27
2023-03-13T09:30:24.945Z,26.28
2023-03-13T09:31:28.237Z,26.28
2023-03-13T09:32:25.059Z,26.27
2023-03-13T09:33:24.894Z,26.26
2023-03-13T09:34:24.887Z,26.27
2023-03-13T09:35:24.848Z,26.28
2023-03-13T09:36:24.938Z,26.28
2023-03-13T09:37:24.814Z,26.28
2023-03-13T09:38:24.781Z,26.30
2023-03-13T09:39:24.761Z,26.32
2023-03-13T09:40:25.731Z,26.32
2023-03-13T09:41:24.697Z,26.34
2023-03-13T09:42:24.954Z,26.35
2023-03-13T09:43:25.602Z,26.32
2023-03-13T09:44:24.564Z,26.34
2023-03-13T09:45:24.532Z,26.32
2023-03-13T09:46:24.547Z,26.34
2023-03-13T09:47:24.954Z,26.35
2023-03-13T09:48:24.456Z,26.31
2023-03-13T09:49:24.454Z,26.17
2023-03-13T09:50:24.407Z,25.44
2023-03-13T09:51:24.469Z,25.19
2023-03-13T09:52:24.574Z,24.74
2023-03-13T09:53:24.442Z,24.47
2023-03-13T09:54:24.522Z,24.33
2023-03-13T09:55:24.491Z,24.23
2023-03-13T09:56:24.534Z,24.24
2023-03-13T09:57:24.556Z,24.26
2023-03-13T09:58:24.544Z,24.30
2023-03-13T09:59:25.571Z,24.37
2023-03-13T10:00:27.752Z,24.46
2023-03-13T10:01:24.990Z,24.57
2023-03-13T10:02:24.560Z,24.70
2023-03-13T10:03:24.546Z,24.78
2023-03-13T10:04:24.617Z,24.88
2023-03-13T10:05:24.554Z,24.96
2023-03-13T10:06:24.960Z,25.07
2023-03-13T10:07:24.551Z,25.16
2023-03-13T10:08:24.964Z,25.26
2023-03-13T10:09:24.560Z,25.34
2023-03-13T10:10:24.532Z,25.38
2023-03-13T10:11:24.522Z,25.48
2023-03-13T10:12:25.548Z,25.55
2023-03-13T10:13:24.506Z,25.60
2023-03-13T10:14:24.494Z,25.68
2023-03-13T10:15:24.515Z,25.69
2023-03-13T10:16:24.592Z,25.75
2023-03-13T10:17:24.462Z,25.82
2023-03-13T10:18:24.418Z,25.85
2023-03-13T10:19:24.403Z,25.88
2023-03-13T10:20:24.464Z,25.93
2023-03-13T10:21:24.364Z,25.95
2023-03-13T10:22:24.489Z,26.00
2023-03-13T10:23:24.462Z,26.00
2023-03-13T10:24:24.291Z,26.04
2023-03-13T10:25:24.263Z,26.06
2023-03-13T10:26:24.470Z,26.08
2023-03-13T10:27:24.227Z,26.08
2023-03-13T10:28:24.200Z,26.13
2023-03-13T10:29:24.469Z,26.13
2023-03-13T10:30:24.173Z,26.16
2023-03-13T10:31:24.249Z,26.20
2023-03-13T10:32:24.171Z,26.24
2023-03-13T10:33:24.074Z,26.23
2023-03-13T10:34:24.473Z,26.28
2023-03-13T10:35:24.042Z,26.28
2023-03-13T10:36:27.183Z,26.31
2023-03-13T10:37:23.956Z,26.30
2023-03-13T10:38:25.672Z,26.30
2023-03-13T10:39:24.900Z,26.32
2023-03-13T10:40:23.898Z,26.31
2023-03-13T10:41:23.843Z,26.31
2023-03-13T10:42:23.819Z,26.30
2023-03-13T10:43:23.981Z,26.32
2023-03-13T10:44:23.950Z,26.32
2023-03-13T10:45:25.362Z,26.31
2023-03-13T10:47:23.729Z,26.31
2023-03-13T10:48:23.978Z,26.32
2023-03-13T10:49:23.641Z,26.35
2023-03-13T10:50:23.975Z,26.35
2023-03-13T10:51:23.595Z,26.32
2023-03-13T10:52:23.986Z,26.35
2023-03-13T10:53:23.564Z,26.34
2023-03-13T10:54:23.530Z,26.34
2023-03-13T10:55:23.987Z,26.34
2023-03-13T10:56:23.485Z,26.32
2023-03-13T10:57:23.482Z,26.23
2023-03-13T10:58:23.448Z,26.01
2023-03-13T10:59:23.437Z,25.80
2023-03-13T11:00:23.425Z,25.69
2023-03-13T11:01:23.425Z,25.64
2023-03-13T11:02:23.594Z,25.60
2023-03-13T11:03:23.591Z,25.55
2023-03-13T11:04:23.381Z,25.55
2023-03-13T11:05:23.394Z,25.52
2023-03-13T11:06:23.486Z,25.55
2023-03-13T11:07:23.312Z,25.58
2023-03-13T11:08:23.394Z,25.61
2023-03-13T11:09:23.314Z,25.65
2023-03-13T11:10:23.274Z,25.66
2023-03-13T11:11:23.491Z,25.72
2023-03-13T11:12:23.236Z,25.76
2023-03-13T11:13:35.550Z,25.76
2023-03-13T11:14:23.203Z,25.83
2023-03-13T11:15:23.251Z,25.82
2023-03-13T11:16:23.299Z,25.85
2023-03-13T11:17:23.145Z,25.89
2023-03-13T11:18:23.516Z,25.93
2023-03-13T11:19:23.148Z,25.96
2023-03-13T11:20:23.104Z,25.99
2023-03-13T11:21:23.079Z,26.01
2023-03-13T11:22:23.142Z,26.01
2023-03-13T11:23:23.502Z,26.06
2023-03-13T11:24:23.025Z,26.01
2023-03-13T11:25:22.996Z,26.04
2023-03-13T11:26:22.971Z,26.04
2023-03-13T11:27:22.993Z,26.07
2023-03-13T11:28:23.023Z,26.06
2023-03-13T11:29:23.048Z,26.04
2023-03-13T11:30:23.068Z,26.08
2023-03-13T11:31:22.946Z,26.10
2023-03-13T11:32:22.947Z,26.08
2023-03-13T11:33:22.819Z,26.12
2023-03-13T11:34:23.788Z,26.13
2023-03-13T11:35:23.031Z,26.12
2023-03-13T11:36:22.762Z,26.10
2023-03-13T11:37:22.744Z,26.10
2023-03-13T11:38:22.731Z,26.12
2023-03-13T11:39:23.011Z,26.08
2023-03-13T11:40:23.000Z,26.08
2023-03-13T11:41:22.663Z,26.10
2023-03-13T11:42:22.638Z,26.10
2023-03-13T11:43:25.893Z,26.08
2023-03-13T11:44:22.606Z,26.08
2023-03-13T11:45:23.081Z,26.12
2023-03-13T11:46:22.768Z,26.07
2023-03-13T11:52:39.601Z,25.90
2023-03-13T11:56:40.582Z,26.07
2023-03-13T12:00:40.193Z,26.12
2023-03-13T12:04:40.162Z,26.14
2023-03-13T12:08:40.204Z,26.10
2023-03-13T12:12:39.587Z,26.04
2023-03-13T12:16:39.648Z,26.03
2023-03-13T12:20:39.251Z,25.90
2023-03-13T12:24:40.135Z,25.52
2023-03-13T12:28:39.727Z,25.21
2023-03-13T12:32:39.662Z,24.58
2023-03-13T12:36:40.156Z,24.26
2023-03-13T12:40:40.126Z,24.17
2023-03-13T12:44:40.596Z,23.81
2023-03-13T12:48:40.124Z,23.64
2023-03-13T12:52:40.118Z,23.85
2023-03-13T12:56:40.145Z,24.15
2023-03-13T13:00:40.375Z,24.39
2023-03-13T13:04:40.250Z,24.60
2023-03-13T13:08:40.110Z,24.81
2023-03-13T13:12:40.235Z,24.86
2023-03-13T13:16:39.726Z,24.95
2023-03-13T13:20:39.617Z,25.06
2023-03-13T13:24:39.454Z,25.19
2023-03-13T13:28:39.779Z,25.26
2023-03-13T13:32:39.641Z,25.30
2023-03-13T13:36:39.373Z,25.37
2023-03-13T13:40:39.613Z,25.42
2023-03-13T13:44:39.642Z,25.45
2023-03-13T13:48:39.617Z,25.48
2023-03-13T13:52:39.616Z,25.51
2023-03-13T13:56:40.171Z,25.57
2023-03-13T14:00:39.645Z,25.58
2023-03-13T14:04:39.635Z,25.60
2023-03-13T14:08:39.629Z,25.64
2023-03-13T14:12:39.634Z,25.65
2023-03-13T14:16:39.931Z,25.68
2023-03-13T14:20:39.640Z,25.71
2023-03-13T14:24:39.139Z,25.73
2023-03-13T14:28:39.107Z,25.75
2023-03-13T14:32:39.205Z,25.76
2023-03-13T14:36:39.151Z,25.76
2023-03-13T14:40:39.150Z,25.73
2023-03-13T14:44:38.854Z,25.73
2023-03-13T14:48:39.206Z,25.72
2023-03-13T14:52:39.147Z,25.72
2023-03-13T14:56:39.180Z,25.72
2023-03-13T15:00:38.765Z,25.78
2023-03-13T15:04:38.650Z,25.80
2023-03-13T15:08:38.668Z,25.86
2023-03-13T15:12:38.649Z,25.89
2023-03-13T15:16:38.680Z,25.89
2023-03-13T15:20:38.240Z,25.93
2023-03-13T15:24:38.166Z,25.95
2023-03-13T15:28:38.161Z,25.96
2023-03-13T15:32:38.206Z,25.99
2023-03-13T15:36:37.826Z,26.00
2023-03-13T15:40:38.161Z,26.01
2023-03-13T15:44:37.573Z,26.04
2023-03-13T15:48:37.669Z,26.03
2023-03-13T15:52:37.706Z,26.03
2023-03-13T15:56:37.287Z,26.00
2023-03-13T16:00:37.149Z,26.00
2023-03-13T16:04:37.237Z,26.01
2023-03-13T16:08:37.490Z,26.00
2023-03-13T16:12:37.174Z,25.99
2023-03-13T16:16:37.913Z,25.99
2023-03-13T16:20:36.683Z,26.07
2023-03-13T16:24:36.760Z,26.01
2023-03-13T16:28:36.486Z,25.96
2023-03-13T16:32:36.740Z,25.95
2023-03-13T16:36:36.333Z,25.93
2023-03-13T16:40:36.431Z,25.88
2023-03-13T16:44:36.178Z,25.83
2023-03-13T16:48:36.125Z,25.82
2023-03-13T16:52:36.084Z,25.78
2023-03-13T16:56:36.067Z,25.72
2023-03-13T17:00:36.040Z,25.72
2023-03-13T17:04:36.106Z,25.71
2023-03-13T17:08:36.000Z,25.69
2023-03-13T17:12:35.948Z,25.68
2023-03-13T17:16:36.258Z,25.66
2023-03-13T17:20:35.777Z,25.65
2023-03-13T17:24:35.733Z,25.62
2023-03-13T17:28:35.713Z,25.62
2023-03-13T17:32:35.757Z,25.64
2023-03-13T17:36:35.654Z,25.61
2023-03-13T17:40:37.411Z,25.60
2023-03-13T17:44:35.471Z,25.58
2023-03-13T17:48:35.276Z,25.60
2023-03-13T17:52:35.122Z,25.57
2023-03-13T17:56:34.964Z,25.60
2023-03-13T18:00:34.829Z,25.57
2023-03-13T18:04:34.634Z,25.58
2023-03-13T18:08:34.447Z,25.57
2023-03-13T18:12:34.318Z,25.55
2023-03-13T18:16:34.249Z,25.55
2023-03-13T18:20:34.712Z,25.55
2023-03-13T18:24:33.864Z,25.51
2023-03-13T18:28:34.223Z,25.54
2023-03-13T18:32:33.705Z,25.54
2023-03-13T18:36:33.595Z,25.54
2023-03-13T18:40:33.598Z,25.54
2023-03-13T18:44:33.587Z,25.54
2023-03-13T18:48:33.549Z,25.52
2023-03-13T18:52:33.514Z,25.52
2023-03-13T18:56:33.488Z,25.52
2023-03-13T19:00:33.526Z,25.52
2023-03-13T19:04:33.453Z,25.51
2023-03-13T19:08:33.394Z,25.49
2023-03-13T19:12:33.388Z,25.51
2023-03-13T19:16:33.416Z,25.49
2023-03-13T19:20:33.458Z,25.52
2023-03-13T19:24:33.284Z,25.51
2023-03-13T19:28:33.259Z,25.48
2023-03-13T19:32:33.251Z,25.49
2023-03-13T19:36:35.009Z,25.51
2023-03-13T19:40:33.069Z,25.51
2023-03-13T19:44:32.951Z,25.48
2023-03-13T19:48:32.824Z,25.51
2023-03-13T19:52:32.746Z,25.47